Time;durP1;ratioP1;P1;durP2;ratioP2;P2;SDS_P1;SDS_P2;PMS_P1;PMS_P2;Temp;Humidity;BMP_temperature;BMP_pressure;BME280_temperature;BME280_humidity;BME280_pressure;Samples;Min_cycle;Max_cycle;Signal;HPM_P1;HPM_P2
2022/03/10 00:00:20;;;;;;;6.93;4.73;;;;;;;-2.31;80.99;101214.02;1695351;83;21078;-66
2022/03/10 00:02:48;;;;;;;6.03;4.40;;;;;;;-2.31;80.96;101214.44;1693255;83;21100;-66
2022/03/10 00:05:18;;;;;;;7.70;5.12;;;;;;;-2.31;80.94;101219.55;1698434;83;21603;-66
2022/03/10 00:07:45;;;;;;;6.47;4.15;;;;;;;-2.33;80.94;101217.35;1697637;83;20979;-66
2022/03/10 00:10:12;;;;;;;6.85;5.17;;;;;;;-2.35;80.92;101224.11;1674313;84;21097;-66
2022/03/10 00:12:51;;;;;;;7.50;4.95;;;;;;;-2.37;80.92;101229.61;1696718;83;21614;-66
2022/03/10 00:15:22;;;;;;;8.93;5.37;;;;;;;-2.40;80.88;101221.85;1698033;84;20971;-66
2022/03/10 00:17:49;;;;;;;6.55;4.53;;;;;;;-2.42;80.89;101228.61;1675871;85;21081;-66
2022/03/10 00:20:16;;;;;;;7.65;5.30;;;;;;;-2.45;80.88;101229.38;1697303;83;21031;-66
2022/03/10 00:22:51;;;;;;;6.33;5.25;;;;;;;-2.49;80.81;101233.55;1705228;83;21023;-66
2022/03/10 00:25:19;;;;;;;7.80;5.25;;;;;;;-2.53;80.82;101237.23;1706873;83;21079;-66
2022/03/10 00:27:47;;;;;;;7.92;5.15;;;;;;;-2.55;80.82;101241.04;1705695;83;21050;-66
2022/03/10 00:30:15;;;;;;;8.90;5.17;;;;;;;-2.56;80.83;101236.72;1702316;83;21027;-66
2022/03/10 00:32:48;;;;;;;6.97;5.20;;;;;;;-2.58;80.77;101246.03;1697450;83;21035;-66
2022/03/10 00:35:18;;;;;;;6.25;4.55;;;;;;;-2.62;80.77;101239.10;1678822;84;21570;-67
2022/03/10 00:37:47;;;;;;;5.55;4.65;;;;;;;-2.64;80.71;101239.45;1666569;84;20971;-66
2022/03/10 00:40:15;;;;;;;9.23;5.55;;;;;;;-2.67;80.72;101240.65;1668656;85;21343;-66
2022/03/10 00:42:43;;;;;;;4.95;4.37;;;;;;;-2.67;80.75;101242.34;1671050;84;21036;-66
2022/03/10 00:45:11;;;;;;;4.37;3.87;;;;;;;-2.69;80.78;101241.00;1691795;84;21538;-66
2022/03/10 00:47:38;;;;;;;5.53;3.55;;;;;;;-2.67;80.78;101243.20;1692867;83;21080;-67
2022/03/10 00:50:07;;;;;;;;;;;;;;;-2.68;80.76;101247.88;1692675;84;21005;-66
2022/03/10 00:52:39;;;;;;;8.80;4.90;;;;;;;-2.71;80.75;101248.64;1692145;84;20103;-67
2022/03/10 00:55:07;;;;;;;5.72;4.30;;;;;;;-2.72;80.71;101251.14;1691643;84;21070;-66
2022/03/10 00:57:34;;;;;;;8.70;5.03;;;;;;;-2.76;80.72;101258.27;1692604;84;21041;-67
2022/03/10 01:00:01;;;;;;;8.05;5.55;;;;;;;-2.78;80.70;101254.78;1691823;84;23152;-67
2022/03/10 01:02:34;;;;;;;8.88;5.22;;;;;;;-2.82;80.76;101248.72;1697299;83;21051;-67
2022/03/10 01:05:01;;;;;;;7.97;4.87;;;;;;;-2.83;80.76;101253.38;1702560;83;21047;-66
2022/03/10 01:07:28;;;;;;;6.08;4.55;;;;;;;-2.88;80.73;101252.78;1692363;84;21683;-67
2022/03/10 01:09:54;;;;;;;6.90;5.33;;;;;;;-2.90;80.79;101254.41;1683464;84;21024;-66
2022/03/10 01:12:21;;;;;;;9.80;6.15;;;;;;;-2.92;80.76;101255.20;1685250;84;21618;-66
2022/03/10 01:14:48;;;;;;;6.90;5.20;;;;;;;-2.93;80.78;101258.59;1697946;83;21035;-66
2022/03/10 01:17:14;;;;;;;7.67;4.62;;;;;;;-2.95;80.77;101265.34;1671070;84;21139;-66
2022/03/10 01:19:41;;;;;;;8.55;5.72;;;;;;;-2.97;80.75;101269.55;1707655;83;21046;-66
2022/03/10 01:22:11;;;;;;;11.83;6.70;;;;;;;-3.02;80.84;101276.20;1705742;83;21515;-66
2022/03/10 01:24:39;;;;;;;9.98;5.62;;;;;;;-3.03;80.86;101276.13;1700619;81;21624;-67
2022/03/10 01:27:06;;;;;;;9.80;6.22;;;;;;;-3.05;80.75;101283.77;1707146;83;21034;-67
2022/03/10 01:29:33;;;;;;;9.28;6.55;;;;;;;-3.06;80.83;101284.56;1702080;83;20963;-66
2022/03/10 01:31:59;;;;;;;8.57;5.50;;;;;;;-3.09;80.78;101294.69;1697079;83;21015;-66
2022/03/10 01:34:26;;;;;;;6.60;4.93;;;;;;;-3.11;80.84;101291.20;1703298;83;21093;-67
2022/03/10 01:36:53;;;;;;;10.98;6.20;;;;;;;-3.12;80.88;101289.48;1676268;84;21449;-66
2022/03/10 01:39:20;;;;;;;10.00;5.67;;;;;;;-3.12;80.87;101302.25;1667939;84;21481;-67
2022/03/10 03:09:27;;;;;;;10.72;6.55;;;;;;;-3.82;81.26;101378.09;1830885;76;20906;-66
2022/03/10 03:11:53;;;;;;;12.50;6.08;;;;;;;-3.85;81.24;101385.64;1831549;76;21010;-66
2022/03/10 03:14:23;;;;;;;9.63;5.92;;;;;;;-3.86;81.26;101389.02;1822598;76;21516;-66
2022/03/10 03:16:51;;;;;;;9.53;6.58;;;;;;;-3.90;81.23;101385.00;1825163;76;20919;-66
2022/03/10 03:19:18;;;;;;;11.78;6.85;;;;;;;-3.88;81.34;101389.77;1825586;77;21298;-66
2022/03/10 03:21:45;;;;;;;11.20;6.78;;;;;;;-3.89;81.39;101392.73;1815612;77;20948;-66
2022/03/10 03:24:12;;;;;;;10.38;6.90;;;;;;;-3.90;81.40;101402.45;1826718;77;20973;-66
2022/03/10 03:26:41;;;;;;;9.73;6.67;;;;;;;-3.91;81.37;101398.17;1813949;76;20904;-66
2022/03/10 03:29:08;;;;;;;13.85;6.90;;;;;;;-3.94;81.37;101398.06;1821498;76;21147;-66
2022/03/10 03:31:35;;;;;;;8.80;6.30;;;;;;;-3.96;81.40;101404.77;1814095;76;21792;-66
2022/03/10 03:34:02;;;;;;;11.35;6.80;;;;;;;-3.96;81.38;101401.36;1822702;77;21699;-66
2022/03/10 03:36:29;;;;;;;11.12;6.53;;;;;;;-3.94;81.42;101408.27;1819798;77;21485;-66
2022/03/10 03:38:56;;;;;;;11.63;7.05;;;;;;;-3.94;81.35;101410.81;1826629;77;20977;-66
2022/03/10 03:41:23;;;;;;;15.05;6.10;;;;;;;-3.94;81.41;101413.37;1825277;75;21479;-66
2022/03/10 03:43:49;;;;;;;8.33;6.28;;;;;;;-3.93;81.36;101413.82;1817545;77;21097;-66
2022/03/10 03:46:16;;;;;;;9.97;7.03;;;;;;;-3.95;81.34;101414.19;1814186;77;20923;-66
2022/03/10 03:48:42;;;;;;;11.07;6.27;;;;;;;-3.94;81.36;101415.92;1820754;76;21378;-66
2022/03/10 03:51:09;;;;;;;11.57;7.20;;;;;;;-3.94;81.33;101423.58;1821083;77;20990;-66
2022/03/10 03:53:36;;;;;;;10.93;7.40;;;;;;;-3.96;81.29;101424.33;1827082;76;20958;-66
2022/03/10 03:56:03;;;;;;;12.30;6.83;;;;;;;-3.98;81.27;101431.91;1823701;76;21669;-66
2022/03/10 03:58:29;;;;;;;12.13;7.83;;;;;;;-3.99;81.29;101430.17;1829059;77;21707;-66
2022/03/10 04:00:56;;;;;;;8.90;6.83;;;;;;;-4.00;81.30;101436.10;1821882;76;21003;-66
2022/03/10 04:03:23;;;;;;;16.07;6.57;;;;;;;-4.01;81.23;101439.44;1820280;77;21044;-66
2022/03/10 04:05:49;;;;;;;8.33;6.15;;;;;;;-4.02;81.24;101444.09;1822479;77;21093;-66
2022/03/10 04:08:16;;;;;;;10.72;6.58;;;;;;;-4.03;81.30;101445.29;1823018;77;21421;-66
2022/03/10 04:10:43;;;;;;;9.60;6.78;;;;;;;-4.05;81.26;101450.35;1815074;77;21626;-66
2022/03/10 04:13:10;;;;;;;14.00;6.80;;;;;;;-4.08;81.25;101447.68;1824484;76;21007;-66
2022/03/10 04:15:36;;;;;;;10.90;7.10;;;;;;;-4.11;81.28;101445.88;1818988;76;21037;-66
2022/03/10 04:18:04;;;;;;;11.90;6.70;;;;;;;-4.12;81.25;101445.80;1831135;76;20992;-66
2022/03/10 04:20:30;;;;;;;12.15;6.47;;;;;;;-4.18;81.19;101441.73;1795810;77;21942;-66
2022/03/10 04:22:58;;;;;;;10.83;6.93;;;;;;;-4.20;81.25;101449.72;1824909;77;21086;-66
2022/03/10 04:25:24;;;;;;;;;;;;;;;-4.26;81.18;101458.00;1825073;76;21050;-66
2022/03/10 04:27:56;;;;;;;13.80;6.75;;;;;;;-4.31;81.26;101468.03;1831185;76;20364;-66
2022/03/10 04:30:22;;;;;;;10.78;7.03;;;;;;;-4.35;81.29;101466.56;1825299;76;21558;-66
2022/03/10 04:32:49;;;;;;;15.53;7.42;;;;;;;-4.39;81.29;101469.39;1825072;77;21945;-66
2022/03/10 04:35:18;;;;;;;;;;;;;;;-4.40;81.29;101470.18;1817590;75;21158;-66
2022/03/10 04:37:48;;;;;;;12.45;7.40;;;;;;;-4.41;81.38;101474.83;1830602;76;20168;-66
2022/03/10 04:40:17;;;;;;;10.32;6.70;;;;;;;-4.44;81.32;101475.11;1820722;77;21039;-66
2022/03/10 04:42:44;;;;;;;14.20;6.72;;;;;;;-4.46;81.36;101482.69;1826151;76;20939;-66
2022/03/10 04:45:12;;;;;;;9.15;5.85;;;;;;;-4.47;81.36;101488.60;1781077;78;21176;-66
2022/03/10 04:47:41;;;;;;;13.62;7.03;;;;;;;-4.46;81.39;101490.33;1763082;79;21526;-66
2022/03/10 04:50:11;;;;;;;11.33;6.70;;;;;;;-4.46;81.36;101494.56;1756595;79;20954;-66
2022/03/10 04:52:40;;;;;;;10.93;7.00;;;;;;;-4.46;81.33;101495.43;1759743;80;21129;-66
2022/03/10 04:55:10;;;;;;;12.13;6.37;;;;;;;-4.47;81.37;101492.84;1765599;79;20953;-66
2022/03/10 04:57:37;;;;;;;10.75;6.70;;;;;;;-4.46;81.42;101497.98;1776515;79;21099;-66
2022/03/10 05:00:08;;;;;;;;;;;;;;;-4.46;81.35;101497.98;1784574;79;21677;-66
2022/03/10 05:02:35;;;;;;;10.25;6.40;;;;;;;-4.51;81.33;101496.91;1801146;79;20116;-66
2022/03/10 05:05:03;;;;;;;9.63;6.50;;;;;;;-4.56;81.38;101494.60;1767594;78;20992;-66
2022/03/10 05:07:30;;;;;;;10.45;6.33;;;;;;;-4.60;81.36;101506.73;1786848;78;21048;-66
2022/03/10 05:09:58;;;;;;;14.60;7.50;;;;;;;-4.64;81.38;101510.83;1789089;78;21102;-66
2022/03/10 05:12:25;;;;;;;12.28;7.47;;;;;;;-4.66;81.35;101521.77;1805488;77;21467;-66
2022/03/10 05:14:53;;;;;;;12.30;7.78;;;;;;;-4.70;81.40;101519.88;1791026;78;21044;-66
2022/03/10 05:17:21;;;;;;;12.73;7.08;;;;;;;-4.73;81.45;101518.95;1793848;78;21483;-66
2022/03/10 05:19:47;;;;;;;10.98;7.75;;;;;;;-4.76;81.49;101516.28;1774363;79;21183;-66
2022/03/10 05:22:14;;;;;;;14.65;8.30;;;;;;;-4.76;81.57;101513.73;1784587;79;22477;-66
2022/03/10 05:24:41;;;;;;;16.00;9.43;;;;;;;-4.76;81.58;101516.28;1791991;78;21064;-65
2022/03/10 05:27:07;;;;;;;11.57;8.23;;;;;;;-4.74;81.61;101524.84;1795111;78;21026;-65
2022/03/10 05:29:35;;;;;;;17.20;8.53;;;;;;;-4.73;81.69;101516.41;1764244;79;21128;-66
2022/03/10 05:32:01;;;;;;;17.67;9.30;;;;;;;-4.70;81.63;101518.59;1763614;79;21123;-65
2022/03/10 05:34:29;;;;;;;16.70;9.83;;;;;;;-4.41;82.02;101522.00;1768476;80;21435;-65
2022/03/10 05:36:55;;;;;;;15.53;9.58;;;;;;;-3.85;81.99;101517.48;1777617;78;21476;-66
2022/03/10 05:39:22;;;;;;;17.23;9.40;;;;;;;-3.34;81.67;101522.01;1771624;79;21102;-66
2022/03/10 05:41:49;;;;;;;18.50;10.50;;;;;;;-2.87;81.24;101520.34;1780355;78;21724;-66
2022/03/10 05:44:16;;;;;;;13.53;9.07;;;;;;;-2.48;80.82;101517.91;1778646;78;21004;-66
2022/03/10 05:46:43;;;;;;;24.57;8.88;;;;;;;-2.07;80.69;101517.16;1780550;78;21114;-66
2022/03/10 05:49:10;;;;;;;13.68;9.03;;;;;;;-1.79;80.29;101528.30;1793361;77;20949;-65
2022/03/10 05:51:37;;;;;;;18.75;9.85;;;;;;;-1.52;79.99;101527.41;1765800;78;21040;-65
2022/03/10 05:54:04;;;;;;;11.70;8.28;;;;;;;-1.23;79.86;101534.30;1767744;79;21028;-66
2022/03/10 05:56:31;;;;;;;13.68;8.50;;;;;;;-0.97;79.66;101536.75;1761739;79;21066;-65
2022/03/10 05:58:58;;;;;;;16.67;8.90;;;;;;;-0.85;79.16;101538.37;1807517;77;21501;-65
2022/03/10 06:01:25;;;;;;;14.18;8.50;;;;;;;-0.64;79.39;101541.06;1796037;78;20911;-66
2022/03/10 06:03:54;;;;;;;18.12;9.08;;;;;;;-0.47;78.95;101539.86;1759614;79;21053;-66
2022/03/10 06:06:21;;;;;;;12.78;8.45;;;;;;;-0.43;78.80;101545.51;1774683;78;21168;-65
2022/03/10 06:08:48;;;;;;;13.28;8.45;;;;;;;-0.26;78.89;101549.38;1766420;80;21024;-66
2022/03/10 06:11:14;;;;;;;10.90;7.30;;;;;;;-0.23;78.49;101554.59;1770172;78;21174;-67
2022/03/10 06:13:41;;;;;;;11.93;7.73;;;;;;;-0.11;78.70;101558.31;1769923;79;21096;-69
2022/03/10 06:16:09;;;;;;;10.78;7.75;;;;;;;-0.09;78.06;101563.08;1787307;79;20954;-66
2022/03/10 06:18:35;;;;;;;11.73;8.23;;;;;;;-0.03;78.00;101558.09;1761066;79;21157;-66
2022/03/10 06:21:02;;;;;;;14.63;7.15;;;;;;;0.04;78.05;101556.14;1757913;79;21698;-67
2022/03/10 06:23:29;;;;;;;9.88;7.45;;;;;;;0.15;78.15;101556.00;1786724;78;21595;-66
2022/03/10 06:25:56;;;;;;;12.73;7.47;;;;;;;0.18;77.69;101566.34;1789925;78;26707;-66
2022/03/10 06:28:22;;;;;;;14.85;8.58;;;;;;;0.23;77.46;101563.03;1793392;78;20911;-66
2022/03/10 06:30:49;;;;;;;16.02;9.95;;;;;;;0.18;77.06;101563.77;1784172;78;20983;-66
2022/03/10 06:33:16;;;;;;;12.80;7.67;;;;;;;0.12;77.12;101566.20;1815098;78;20942;-66
2022/03/10 06:35:44;;;;;;;13.55;8.85;;;;;;;0.16;77.26;101565.42;1796052;78;22550;-66
2022/03/10 06:38:10;;;;;;;11.70;7.08;;;;;;;0.20;77.02;101574.97;1795885;78;20996;-66
2022/03/10 06:40:37;;;;;;;8.88;6.67;;;;;;;0.17;76.85;101574.89;1777066;78;21599;-66
2022/03/10 06:43:04;;;;;;;10.67;6.93;;;;;;;0.25;77.08;101576.77;1807215;77;20925;-66
2022/03/10 06:45:31;;;;;;;12.90;6.47;;;;;;;0.33;77.04;101588.09;1786711;78;21464;-66
2022/03/10 06:47:58;;;;;;;14.10;8.30;;;;;;;0.41;76.86;101586.59;1771062;80;21131;-66
2022/03/10 06:50:25;;;;;;;15.70;7.78;;;;;;;0.51;76.80;101585.13;1768381;79;20997;-66
2022/03/10 06:52:56;;;;;;;11.57;6.83;;;;;;;0.43;76.22;101595.21;1776664;80;21639;-67
2022/03/10 06:55:20;;;;;;;8.80;6.17;;;;;;;0.58;76.42;101591.70;1783082;78;21015;-66
2022/03/10 06:57:48;;;;;;;13.80;7.45;;;;;;;0.58;75.77;101600.70;1791028;78;21128;-67
2022/03/10 07:00:16;;;;;;;11.08;7.22;;;;;;;0.56;75.61;101594.68;1803155;78;21102;-69
2022/03/10 07:02:42;;;;;;;14.58;7.83;;;;;;;0.49;75.27;101600.91;1805179;78;21009;-66
2022/03/10 07:05:09;;;;;;;9.95;6.95;;;;;;;0.43;75.68;101597.78;1770791;78;21466;-66
2022/03/10 07:07:36;;;;;;;9.18;7.08;;;;;;;0.43;75.83;101601.64;1770081;79;20926;-66
2022/03/10 07:10:04;;;;;;;15.58;8.03;;;;;;;0.45;75.62;101603.84;1771231;79;21630;-66
2022/03/10 07:12:39;;;;;;;14.78;8.28;;;;;;;0.52;75.51;101612.55;1740778;79;22151;-66
2022/03/10 07:15:11;;;;;;;17.65;7.95;;;;;;;0.53;75.40;101617.71;1768948;79;20937;-66
2022/03/10 07:17:39;;;;;;;13.80;8.08;;;;;;;0.47;75.48;101612.43;1770490;79;21609;-65
2022/03/10 07:20:08;;;;;;;10.98;7.70;;;;;;;0.17;74.74;101621.13;1808146;78;21588;-66
2022/03/10 07:22:39;;;;;;;12.45;7.87;;;;;;;0.10;75.31;101621.79;1752771;79;21042;-65
2022/03/10 07:25:09;;;;;;;11.30;6.67;;;;;;;0.16;74.71;101624.52;1757663;79;21783;-65
2022/03/10 07:27:38;;;;;;;10.90;6.75;;;;;;;0.16;74.11;101626.22;1759197;79;20966;-66
2022/03/10 07:30:07;;;;;;;11.12;6.67;;;;;;;0.12;74.26;101635.55;1764062;79;21040;-66
2022/03/10 07:32:34;;;;;;;10.13;5.70;;;;;;;0.18;74.15;101635.70;1783013;79;20953;-65
2022/03/10 07:35:01;;;;;;;9.70;6.20;;;;;;;0.16;73.49;101621.94;1761883;79;21035;-65
2022/03/10 07:37:28;;;;;;;10.33;6.23;;;;;;;-0.18;73.89;101623.19;1765252;79;21282;-65
2022/03/10 07:39:54;;;;;;;9.25;5.97;;;;;;;-0.18;73.89;101623.19;1767432;79;21967;-65
2022/03/10 07:42:22;;;;;;;18.83;12.27;;;;;;;-0.35;73.39;101632.57;1769576;78;21681;-66
2022/03/10 07:44:48;;;;;;;10.65;6.03;;;;;;;-0.47;73.79;101629.67;1753823;80;21068;-65
2022/03/10 07:47:15;;;;;;;9.97;6.43;;;;;;;-0.55;73.19;101626.88;1759903;79;20992;-65
2022/03/10 07:49:42;;;;;;;10.97;6.60;;;;;;;-0.58;73.81;101632.34;1771662;79;21215;-63
2022/03/10 07:52:08;;;;;;;11.97;6.75;;;;;;;-0.57;73.64;101635.36;1774329;79;21036;-65
2022/03/10 07:54:35;;;;;;;16.30;6.90;;;;;;;-0.64;72.93;101633.42;1753014;79;20949;-65
2022/03/10 07:57:04;;;;;;;10.45;6.15;;;;;;;-0.69;72.85;101636.74;1789163;78;21626;-65
2022/03/10 07:59:31;;;;;;;12.70;6.12;;;;;;;-0.69;72.91;101628.19;1774781;79;20968;-65
2022/03/10 08:01:58;;;;;;;12.45;6.70;;;;;;;-0.70;72.11;101635.02;1777851;78;22331;-65
2022/03/10 08:04:25;;;;;;;12.50;6.10;;;;;;;-0.75;72.18;101639.13;1780776;78;28310;-65
2022/03/10 08:06:52;;;;;;;8.50;5.45;;;;;;;-0.62;72.67;101644.61;1762850;79;21158;-65
2022/03/10 08:09:20;;;;;;;8.65;6.10;;;;;;;-0.50;72.23;101634.30;1768584;79;21628;-65
2022/03/10 08:11:47;;;;;;;8.78;5.05;;;;;;;-0.41;72.42;101640.11;1766540;78;21124;-66
2022/03/10 08:14:13;;;;;;;13.77;6.37;;;;;;;-0.33;72.42;101646.33;1770751;78;21472;-65
2022/03/10 08:16:41;;;;;;;11.25;4.62;;;;;;;-0.25;72.50;101637.56;1768071;79;22358;-65
2022/03/10 08:19:09;;;;;;;19.02;6.10;;;;;;;-0.13;72.05;101640.88;1773871;79;20954;-65
2022/03/10 08:21:36;;;;;;;13.28;5.70;;;;;;;-0.15;71.46;101645.09;1782392;79;21498;-66
2022/03/10 08:24:03;;;;;;;12.80;4.75;;;;;;;-0.11;71.44;101653.31;1800246;77;22240;-66
2022/03/10 08:26:29;;;;;;;9.90;4.60;;;;;;;-0.10;70.43;101651.22;1764231;79;22135;-65
2022/03/10 08:28:56;;;;;;;9.58;5.15;;;;;;;-0.11;70.10;101649.46;1762944;79;20960;-66
2022/03/10 08:31:23;;;;;;;9.03;5.00;;;;;;;-0.14;69.76;101646.81;1754440;79;21684;-65
2022/03/10 08:33:51;;;;;;;7.45;4.00;;;;;;;-0.15;70.27;101660.49;1754993;80;21060;-66
2022/03/10 08:36:18;;;;;;;10.98;5.35;;;;;;;-0.11;69.52;101644.33;1752101;80;21601;-65
2022/03/10 08:38:45;;;;;;;8.75;5.08;;;;;;;-0.07;70.11;101646.17;1771327;78;21594;-65
2022/03/10 08:41:11;;;;;;;9.07;6.20;;;;;;;0.03;70.02;101644.31;1765916;79;21043;-66
2022/03/10 08:43:38;;;;;;;8.53;5.87;;;;;;;0.12;70.12;101644.96;1795174;78;21539;-66
2022/03/10 08:46:06;;;;;;;12.70;6.85;;;;;;;0.21;70.48;101653.77;1786377;78;20977;-66
2022/03/10 08:48:34;;;;;;;12.45;7.58;;;;;;;0.37;70.27;101655.45;1751930;80;20951;-65
2022/03/10 08:51:04;;;;;;;12.98;7.35;;;;;;;0.47;70.41;101652.69;1783189;79;21473;-64
2022/03/10 08:53:32;;;;;;;16.35;9.83;;;;;;;0.55;70.21;101648.19;1776462;79;20891;-64
2022/03/10 08:55:59;;;;;;;19.35;11.68;;;;;;;0.72;70.60;101651.59;1774568;79;21147;-67
2022/03/10 08:58:25;;;;;;;16.37;9.30;;;;;;;0.83;70.47;101650.14;1767303;79;21761;-66
2022/03/10 09:00:52;;;;;;;8.93;4.80;;;;;;;0.96;70.11;101649.59;1771956;79;21098;-66
2022/03/10 09:03:19;;;;;;;9.00;5.17;;;;;;;0.93;68.71;101650.81;1762113;79;21524;-66
2022/03/10 09:05:46;;;;;;;8.28;4.95;;;;;;;0.86;69.00;101647.63;1740680;80;20946;-66
2022/03/10 09:08:13;;;;;;;8.15;5.20;;;;;;;0.84;67.67;101642.86;1759716;79;21045;-66
2022/03/10 09:10:40;;;;;;;9.43;5.17;;;;;;;0.80;68.05;101639.78;1721420;81;21173;-65
2022/03/10 09:13:07;;;;;;;8.48;5.22;;;;;;;0.81;68.41;101647.94;1759607;79;21136;-67
2022/03/10 09:15:35;;;;;;;8.83;5.83;;;;;;;0.82;68.08;101643.27;1753171;79;21306;-67
2022/03/10 09:18:04;;;;;;;8.25;4.70;;;;;;;0.85;67.44;101638.19;1759812;78;21045;-67
2022/03/10 09:20:32;;;;;;;5.17;3.52;;;;;;;0.88;66.96;101644.69;1735287;81;21186;-67
2022/03/10 09:23:01;;;;;;;9.03;4.00;;;;;;;0.83;66.00;101651.42;1775478;79;20985;-67
2022/03/10 09:25:28;;;;;;;6.50;4.15;;;;;;;0.77;65.79;101650.00;1769794;79;21150;-66
2022/03/10 09:27:55;;;;;;;8.85;4.22;;;;;;;0.74;65.42;101650.80;1772943;79;21216;-66
2022/03/10 09:30:22;;;;;;;13.35;7.35;;;;;;;0.80;66.32;101652.64;1784713;78;21000;-66
2022/03/10 09:32:48;;;;;;;11.12;5.97;;;;;;;0.88;66.75;101653.69;1775533;79;20984;-66
2022/03/10 09:35:17;;;;;;;7.30;4.70;;;;;;;0.93;66.35;101649.53;1764864;79;21049;-67
2022/03/10 09:37:45;;;;;;;9.35;5.45;;;;;;;0.98;65.17;101651.80;1782899;78;21554;-63
2022/03/10 09:40:12;;;;;;;;;;;;;;;1.13;66.71;101653.83;1809721;78;23181;-66
2022/03/10 09:42:39;;;;;;;;;;;;;;;1.23;64.92;101654.89;1783062;78;20461;-65
2022/03/10 09:45:09;;;;;;;11.50;5.10;;;;;;;1.18;65.17;101655.23;1788837;78;20253;-65
2022/03/10 09:47:39;;;;;;;33.38;14.05;;;;;;;1.15;65.54;101662.85;1788030;78;20919;-66
2022/03/10 09:50:11;;;;;;;15.93;10.28;;;;;;;1.24;65.58;101664.37;1780360;78;21035;-65
2022/03/10 09:52:39;;;;;;;15.28;10.13;;;;;;;1.39;66.07;101662.53;1801639;78;22250;-67
2022/03/10 09:55:06;;;;;;;;;;;;;;;1.50;65.67;101664.48;1773846;78;20981;-66
2022/03/10 09:57:37;;;;;;;11.88;5.10;;;;;;;1.58;65.43;101656.07;1772858;78;20096;-66
2022/03/10 10:00:06;;;;;;;12.40;5.80;;;;;;;1.69;65.57;101657.16;1798178;78;20922;-65
2022/03/10 10:02:32;;;;;;;11.95;8.98;;;;;;;1.78;65.02;101658.19;1814591;78;21108;-65
2022/03/10 10:05:00;;;;;;;14.10;8.13;;;;;;;1.82;65.51;101661.72;1790454;78;21111;-66
2022/03/10 10:07:29;;;;;;;14.83;10.30;;;;;;;1.87;65.28;101658.78;1787721;78;20996;-65
2022/03/10 10:09:58;;;;;;;13.93;7.95;;;;;;;1.99;65.42;101658.17;1789259;78;20961;-65
2022/03/10 10:12:30;;;;;;;12.68;8.13;;;;;;;2.03;65.16;101665.53;1780275;79;20943;-65
2022/03/10 10:14:58;;;;;;;10.35;7.10;;;;;;;2.06;65.25;101670.74;1794743;78;21100;-66
2022/03/10 10:17:28;;;;;;;12.33;5.28;;;;;;;2.17;65.30;101667.52;1801100;78;21104;-65
2022/03/10 10:19:58;;;;;;;10.93;4.78;;;;;;;2.20;64.83;101666.70;1813367;78;20985;-65
2022/03/10 10:22:27;;;;;;;18.23;6.15;;;;;;;2.27;64.44;101665.99;1821799;78;20989;-65
2022/03/10 10:24:59;;;;;;;11.57;6.58;;;;;;;2.27;64.71;101671.15;1772105;79;20910;-66
2022/03/10 10:27:32;;;;;;;10.63;6.78;;;;;;;2.31;64.79;101669.05;1776531;79;21050;-65
2022/03/10 10:30:02;;;;;;;11.43;5.50;;;;;;;2.39;65.07;101662.75;1787571;79;21353;-65
2022/03/10 10:32:46;;;;;;;9.05;6.17;;;;;;;2.47;64.12;101663.75;1773836;79;20989;-65
2022/03/10 10:35:20;;;;;;;8.88;5.10;;;;;;;2.48;63.95;101667.20;1762744;80;21102;-66
2022/03/10 10:37:46;;;;;;;13.15;4.95;;;;;;;2.44;64.16;101659.41;1805337;78;21463;-65
2022/03/10 10:40:19;;;;;;;9.25;4.97;;;;;;;2.52;63.99;101654.79;1798690;78;20968;-66
2022/03/10 10:42:46;;;;;;;6.28;4.30;;;;;;;2.57;63.94;101654.45;1805490;78;21300;-65
2022/03/10 10:45:38;;;;;;;16.87;5.62;;;;;;;2.57;63.50;101651.87;1792113;78;20996;-68
2022/03/10 10:48:10;;;;;;;8.03;4.08;;;;;;;2.41;61.54;101654.20;1783611;79;21546;-67
2022/03/10 10:50:40;;;;;;;9.05;4.78;;;;;;;2.31;61.76;101651.44;1799814;78;21099;-67
2022/03/10 10:53:08;;;;;;;9.63;4.37;;;;;;;2.30;62.04;101649.28;1759935;80;21160;-65
2022/03/10 10:55:42;;;;;;;8.28;4.35;;;;;;;2.33;61.75;101649.34;1777471;78;21182;-68
2022/03/10 10:58:13;;;;;;;12.07;5.08;;;;;;;2.31;60.90;101654.88;1764122;80;20945;-68
2022/03/10 11:00:43;;;;;;;6.90;4.20;;;;;;;2.34;61.51;101651.48;1777424;80;20979;-67
2022/03/10 11:03:25;;;;;;;8.43;4.35;;;;;;;2.49;61.84;101641.84;1775374;80;21215;-67
2022/03/10 11:05:54;;;;;;;8.35;3.83;;;;;;;2.64;61.05;101655.01;1766719;79;21083;-67
2022/03/10 11:08:31;;;;;;;7.75;4.20;;;;;;;2.60;60.23;101653.20;1778965;78;21106;-67
2022/03/10 11:11:01;;;;;;;9.55;3.87;;;;;;;2.54;60.28;101649.24;1771753;79;21124;-67
2022/03/10 11:13:29;;;;;;;20.90;4.53;;;;;;;2.42;58.69;101648.20;1772587;79;21100;-67
2022/03/10 11:15:57;;;;;;;9.70;4.28;;;;;;;2.33;59.34;101653.20;1799486;78;21045;-67
2022/03/10 11:18:25;;;;;;;10.58;4.40;;;;;;;2.32;59.68;101655.31;1807062;78;21645;-67
2022/03/10 11:21:00;;;;;;;8.28;4.80;;;;;;;2.39;60.41;101653.30;1815060;78;21358;-67
2022/03/10 11:24:17;;;;;;;8.58;4.40;;;;;;;2.56;59.46;101648.42;1781984;79;21079;-68
2022/03/10 11:27:26;;;;;;;8.75;4.62;;;;;;;2.72;59.65;101652.12;1763803;79;21060;-67
2022/03/10 11:29:56;;;;;;;6.22;4.60;;;;;;;2.78;59.12;101648.34;1790592;78;21056;-67
2022/03/10 11:32:30;;;;;;;10.72;4.83;;;;;;;2.87;59.33;101640.74;1771295;79;20997;-67
2022/03/10 11:35:00;;;;;;;8.90;4.03;;;;;;;2.95;59.51;101642.58;1762400;78;21458;-68
2022/03/10 11:37:50;;;;;;;16.00;5.42;;;;;;;2.89;59.32;101644.65;1791042;77;20949;-68
2022/03/10 11:40:39;;;;;;;10.68;4.92;;;;;;;2.93;58.79;101644.27;1762080;79;20977;-67
2022/03/10 11:43:06;;;;;;;8.48;4.95;;;;;;;2.94;59.03;101638.25;1770335;79;20894;-67
2022/03/10 11:45:34;;;;;;;10.45;6.08;;;;;;;2.95;58.26;101640.00;1766504;79;21135;-67
2022/03/10 11:48:35;;;;;;;9.30;4.95;;;;;;;2.90;58.61;101635.62;1803885;78;21243;-67
2022/03/10 11:51:14;;;;;;;8.98;4.42;;;;;;;2.90;58.97;101636.91;1794452;78;21621;-67
2022/03/10 11:54:01;;;;;;;6.37;3.20;;;;;;;2.87;57.89;101647.19;1773673;79;21014;-67
2022/03/10 11:56:52;;;;;;;10.20;3.77;;;;;;;2.79;56.77;101638.47;1759723;80;21054;-67
2022/03/10 11:59:37;;;;;;;8.93;4.03;;;;;;;2.73;57.93;101640.09;1770144;79;21058;-67
2022/03/10 12:02:08;;;;;;;9.60;4.58;;;;;;;2.75;56.70;101634.12;1761754;79;21182;-67
2022/03/10 12:04:41;;;;;;;9.33;4.15;;;;;;;2.69;57.49;101632.31;1750568;79;21617;-67
2022/03/10 12:07:17;;;;;;;5.90;3.75;;;;;;;2.74;57.08;101631.50;1781409;79;20935;-67
2022/03/10 12:10:08;;;;;;;10.93;4.60;;;;;;;2.82;56.89;101625.61;1804779;78;21131;-67
2022/03/10 12:12:45;;;;;;;19.30;6.05;;;;;;;2.85;56.48;101629.52;1809988;77;20997;-66
2022/03/10 12:15:29;;;;;;;;;;;;;;;3.03;56.94;101628.08;1780072;80;22208;-65
2022/03/10 12:17:56;;;;;;;5.45;3.55;;;;;;;2.97;54.74;101624.09;1786261;78;20098;-67
2022/03/10 12:20:41;;;;;;;10.65;4.37;;;;;;;2.83;55.63;101623.89;1786679;79;20925;-67
2022/03/10 12:23:15;;;;;;;5.87;3.72;;;;;;;2.84;56.24;101621.34;1778514;79;20926;-67
2022/03/10 12:25:55;;;;;;;8.00;4.05;;;;;;;2.93;56.30;101624.91;1786461;79;21622;-67
2022/03/10 12:28:42;;;;;;;10.05;4.20;;;;;;;3.07;56.62;101628.55;1768508;79;21141;-67
2022/03/10 12:31:22;;;;;;;6.97;3.92;;;;;;;3.14;56.14;101627.80;1750119;79;20908;-67
2022/03/10 12:33:53;;;;;;;6.55;3.95;;;;;;;3.09;56.48;101622.56;1778212;79;20993;-67
2022/03/10 12:39:30;;;;;;;11.08;4.80;;;;;;;3.01;54.67;101609.11;1864836;75;22802;-66
2022/03/10 12:42:07;;;;;;;5.85;3.77;;;;;;;3.03;55.21;101610.02;1849575;77;20883;-66
2022/03/10 12:44:26;;;;;;;6.03;3.90;;;;;;;3.06;54.83;101606.18;1829470;77;21104;-68
2022/03/10 12:46:54;;;;;;;7.40;4.78;;;;;;;3.05;54.02;101614.75;1851838;76;20961;-66
2022/03/10 12:49:37;;;;;;;7.10;3.98;;;;;;;2.94;53.88;101608.57;1851378;77;21673;-69
2022/03/10 12:52:13;;;;;;;14.80;4.47;;;;;;;2.86;53.97;101611.93;1815947;76;21562;-66
2022/03/10 12:54:42;;;;;;;7.50;4.00;;;;;;;2.85;53.05;101610.17;1844923;77;21044;-66
2022/03/10 12:57:10;;;;;;;6.53;3.85;;;;;;;2.81;53.78;101601.95;1850665;77;21287;-66
2022/03/10 12:59:38;;;;;;;;;;;;;;;2.84;53.73;101616.19;1844516;77;20918;-66
2022/03/10 13:02:22;;;;;;;12.28;5.28;;;;;;;2.85;53.88;101604.15;1843442;77;20142;-66
2022/03/10 13:05:02;;;;;;;6.65;3.90;;;;;;;2.91;54.33;101607.70;1836357;76;21565;-65
2022/03/10 13:07:35;;;;;;;7.72;3.77;;;;;;;3.02;53.53;101605.67;1844252;77;20958;-65